Time;durP1;ratioP1;P1;durP2;ratioP2;P2;SDS_P1;SDS_P2;PMS_P1;PMS_P2;Temp;Humidity;BMP_temperature;BMP_pressure;BME280_temperature;BME280_humidity;BME280_pressure;Samples;Min_cycle;Max_cycle;Signal;HPM_P1;HPM_P2
2021/06/05 00:01:29;;;;;;;9.63;2.90;;;;;;;13.54;67.85;99844.47;1660962;85;21265;-74
2021/06/05 00:03:58;;;;;;;6.75;2.85;;;;;;;13.52;67.86;99842.56;1656413;84;21140;-74
2021/06/05 00:06:27;;;;;;;8.05;3.08;;;;;;;13.51;67.91;99849.18;1680255;83;21072;-74
2021/06/05 00:08:55;;;;;;;8.80;2.58;;;;;;;13.49;67.85;99845.31;1684097;83;21259;-75
2021/06/05 00:11:28;;;;;;;10.88;3.35;;;;;;;13.49;67.95;99844.48;1670062;83;21004;-76
2021/06/05 00:13:59;;;;;;;10.05;3.02;;;;;;;13.46;67.96;99847.81;1666762;83;21160;-75
2021/06/05 00:16:33;;;;;;;7.50;3.10;;;;;;;13.46;68.08;99839.56;1667583;83;21211;-76
2021/06/05 00:19:03;;;;;;;9.83;3.55;;;;;;;13.45;68.27;99840.66;1679416;83;21144;-69
2021/06/05 00:21:31;;;;;;;10.05;3.45;;;;;;;13.44;68.24;99842.57;1670271;83;21515;-69
2021/06/05 00:23:58;;;;;;;10.68;3.62;;;;;;;13.42;68.21;99844.78;1674422;83;21204;-70
2021/06/05 00:26:26;;;;;;;11.10;3.80;;;;;;;13.38;68.36;99845.08;1668219;83;21565;-69
2021/06/05 00:28:54;;;;;;;11.22;3.70;;;;;;;13.27;68.44;99839.30;1666368;83;21076;-69
2021/06/05 00:31:22;;;;;;;15.35;3.98;;;;;;;13.20;68.90;99836.84;1668535;83;21459;-69
2021/06/05 00:33:50;;;;;;;8.28;3.27;;;;;;;13.21;69.04;99840.39;1671075;85;21172;-69
2021/06/05 00:36:19;;;;;;;8.40;3.20;;;;;;;13.20;68.95;99842.88;1669479;83;21099;-68
2021/06/05 00:38:47;;;;;;;10.03;3.52;;;;;;;13.18;69.20;99842.34;1682930;83;21215;-69
2021/06/05 00:41:17;;;;;;;12.45;3.10;;;;;;;13.16;69.07;99837.64;1683448;83;21717;-68
2021/06/05 00:43:49;;;;;;;11.12;3.65;;;;;;;13.15;69.29;99837.39;1686154;84;21144;-68
2021/06/05 00:46:19;;;;;;;11.60;3.22;;;;;;;13.11;69.23;99832.98;1663028;83;21184;-69
2021/06/05 00:48:47;;;;;;;9.75;3.35;;;;;;;13.06;69.40;99837.11;1666672;85;21187;-68
2021/06/05 00:51:17;;;;;;;10.28;3.75;;;;;;;13.06;69.59;99836.24;1671937;85;21161;-69
2021/06/05 00:53:46;;;;;;;9.03;3.35;;;;;;;13.02;69.58;99831.86;1664748;83;21140;-69
2021/06/05 00:56:14;;;;;;;10.43;3.37;;;;;;;13.00;69.78;99834.07;1641767;86;21081;-69
2021/06/05 00:58:44;;;;;;;8.70;3.40;;;;;;;12.99;69.89;99834.33;1602714;85;21136;-76
2021/06/05 01:01:19;;;;;;;9.80;3.33;;;;;;;12.96;70.04;99824.70;1663121;85;21499;-75
2021/06/05 01:11:31;;;;;;;13.20;3.45;;;;;;;12.98;70.47;99818.95;1819010;77;22135;-69
2021/06/05 01:14:05;;;;;;;8.05;3.45;;;;;;;12.92;70.23;99820.88;1753766;79;21179;-67
2021/06/05 01:16:35;;;;;;;9.15;3.70;;;;;;;12.90;70.69;99823.63;1740778;82;21697;-67
2021/06/05 01:19:13;;;;;;;8.38;3.52;;;;;;;12.88;70.49;99820.30;1697402;83;21211;-69
2021/06/05 01:21:56;;;;;;;7.58;3.67;;;;;;;12.91;70.43;99822.50;1706730;82;21640;-69
2021/06/05 01:24:48;;;;;;;12.20;3.60;;;;;;;12.91;70.45;99819.76;1701684;81;21275;-68
2021/06/05 01:27:25;;;;;;;11.43;3.85;;;;;;;12.86;70.70;99816.47;1713727;82;21505;-67
2021/06/05 01:36:19;;;;;;;12.58;4.05;;;;;;;12.83;71.28;99822.50;1819518;77;25687;-68
2021/06/05 01:38:54;;;;;;;11.03;4.22;;;;;;;12.76;71.24;99819.20;1756891;80;21147;-76
2021/06/05 01:41:25;;;;;;;12.27;4.40;;;;;;;12.78;71.29;99820.30;1749422;81;21672;-75
2021/06/05 01:43:54;;;;;;;14.58;4.60;;;;;;;12.77;71.40;99816.75;1715612;81;21133;-77
2021/06/05 01:46:28;;;;;;;14.83;4.40;;;;;;;12.72;71.40;99808.50;1677415;84;21160;-76
2021/06/05 01:48:56;;;;;;;12.50;4.45;;;;;;;12.67;71.73;99812.62;1698843;84;21176;-76
2021/06/05 01:51:25;;;;;;;11.55;4.60;;;;;;;12.65;71.78;99813.41;1685775;84;21140;-76
2021/06/05 01:53:57;;;;;;;13.88;4.78;;;;;;;12.64;71.84;99810.41;1685515;84;21283;-75
2021/06/05 01:56:49;;;;;;;10.50;4.28;;;;;;;12.61;71.98;99809.03;1682604;83;21724;-75
2021/06/05 01:59:20;;;;;;;10.72;5.10;;;;;;;12.60;72.04;99805.17;1660883;84;21189;-68
2021/06/05 02:01:49;;;;;;;13.83;4.58;;;;;;;12.59;72.22;99806.28;1695094;83;21285;-67
2021/06/05 02:04:18;;;;;;;12.28;4.95;;;;;;;12.59;72.25;99806.28;1690422;84;21146;-68
2021/06/05 02:06:49;;;;;;;10.90;4.10;;;;;;;12.60;72.27;99810.66;1698042;83;21129;-68
2021/06/05 02:09:21;;;;;;;9.10;4.42;;;;;;;12.57;72.37;99800.25;1700946;84;21133;-67
2021/06/05 02:11:53;;;;;;;10.13;4.37;;;;;;;12.58;72.39;99806.83;1689333;84;21297;-67
2021/06/05 02:14:37;;;;;;;15.83;4.92;;;;;;;12.58;72.45;99802.71;1688226;84;21272;-66
2021/06/05 02:17:08;;;;;;;11.43;4.30;;;;;;;12.59;72.43;99804.91;1697232;83;21158;-68
2021/06/05 02:27:01;;;;;;;11.12;4.58;;;;;;;12.63;73.01;99812.33;1827380;77;22116;-67
2021/06/05 02:29:35;;;;;;;11.03;4.75;;;;;;;12.59;73.02;99813.98;1720378;82;21185;-68
2021/06/05 02:32:07;;;;;;;11.20;4.85;;;;;;;12.58;73.27;99808.74;1721990;81;21144;-67
2021/06/05 02:34:36;;;;;;;10.85;4.28;;;;;;;12.59;73.41;99821.39;1687975;83;21175;-69
2021/06/05 02:37:06;;;;;;;8.98;4.25;;;;;;;12.58;73.33;99816.98;1709745;84;21520;-68
2021/06/05 02:39:35;;;;;;;10.50;4.45;;;;;;;12.58;73.95;99814.23;1655378;83;21132;-78
2021/06/05 02:42:15;;;;;;;10.28;3.72;;;;;;;12.58;73.86;99811.48;1707375;84;21755;-79
2021/06/05 02:44:47;;;;;;;13.00;3.92;;;;;;;12.59;73.52;99800.80;1688563;82;21267;-68
2021/06/05 02:51:14;;;;;;;8.85;3.70;;;;;;;12.68;73.44;99800.52;1790128;77;22167;-70
2021/06/05 02:53:43;;;;;;;12.25;4.15;;;;;;;12.68;73.30;99810.13;1740133;80;21152;-76
2021/06/05 02:56:12;;;;;;;12.55;4.15;;;;;;;12.70;73.16;99802.44;1720153;80;21666;-70
2021/06/05 02:58:41;;;;;;;8.93;4.10;;;;;;;12.72;73.01;99805.76;1753560;80;21136;-69
2021/06/05 03:01:10;;;;;;;13.08;4.22;;;;;;;12.72;73.10;99810.67;1755042;80;21155;-70
2021/06/05 03:03:40;;;;;;;10.30;4.92;;;;;;;12.73;73.06;99808.77;1755688;81;21172;-76
2021/06/05 03:06:08;;;;;;;14.30;4.28;;;;;;;12.71;73.13;99809.05;1735364;80;21152;-69
2021/06/05 03:08:37;;;;;;;;;;;;;;;12.69;73.17;99813.16;1742499;81;21148;-77
2021/06/05 03:11:11;;;;;;;9.88;4.30;;;;;;;12.67;73.26;99808.50;1716266;82;20510;-68
2021/06/05 03:13:40;;;;;;;10.95;3.98;;;;;;;12.65;73.35;99804.63;1715649;82;21245;-68
2021/06/05 03:16:09;;;;;;;12.50;4.42;;;;;;;12.64;73.59;99800.26;1694411;83;21211;-78
2021/06/05 03:18:39;;;;;;;10.72;4.45;;;;;;;12.64;73.66;99800.80;1705377;84;21130;-78
2021/06/05 03:21:09;;;;;;;13.70;3.77;;;;;;;12.67;73.58;99801.63;1694548;83;21954;-69
2021/06/05 03:23:37;;;;;;;10.03;4.03;;;;;;;12.69;73.68;99798.06;1669065;83;21147;-78
2021/06/05 03:26:07;;;;;;;14.05;4.62;;;;;;;12.71;73.64;99799.44;1696171;83;21555;-77
2021/06/05 03:28:38;;;;;;;18.17;5.83;;;;;;;12.75;74.05;99796.41;1705634;83;21288;-75
2021/06/05 03:31:08;;;;;;;14.83;5.25;;;;;;;12.74;74.05;99794.78;1647653;85;21689;-69
2021/06/05 03:33:36;;;;;;;11.53;5.15;;;;;;;12.71;74.37;99793.11;1696470;83;21262;-78
2021/06/05 03:36:06;;;;;;;9.95;4.50;;;;;;;12.72;74.60;99796.15;1719097;81;21281;-78
2021/06/05 03:38:35;;;;;;;12.55;4.78;;;;;;;12.72;74.73;99796.15;1711963;83;21608;-69
2021/06/05 03:41:04;;;;;;;9.78;4.92;;;;;;;12.76;74.71;99794.49;1681148;82;21331;-69
2021/06/05 03:43:32;;;;;;;9.03;4.53;;;;;;;12.85;74.94;99801.07;1685937;84;21184;-68
2021/06/05 03:46:00;;;;;;;13.50;4.80;;;;;;;12.95;74.65;99798.36;1706662;83;21665;-69
2021/06/05 03:48:28;;;;;;;11.73;4.67;;;;;;;13.04;74.69;99797.23;1702090;82;21149;-68
2021/06/05 03:50:57;;;;;;;13.18;5.05;;;;;;;13.12;74.38;99804.42;1702205;84;21206;-78
2021/06/05 03:53:26;;;;;;;18.73;6.08;;;;;;;13.19;74.23;99797.25;1698839;82;21193;-78
2021/06/05 03:55:54;;;;;;;15.03;5.37;;;;;;;13.22;74.52;99798.91;1706429;83;21503;-76
2021/06/05 03:58:37;;;;;;;14.35;4.95;;;;;;;13.25;74.53;99805.23;1687501;82;21589;-78
2021/06/05 04:01:09;;;;;;;13.48;4.50;;;;;;;13.29;74.54;99801.36;1710170;84;21291;-69
2021/06/05 04:03:37;;;;;;;13.08;5.00;;;;;;;13.35;74.65;99800.27;1685745;82;21761;-68
2021/06/05 04:06:05;;;;;;;12.30;4.80;;;;;;;13.44;74.35;99797.75;1680258;82;21203;-70
2021/06/05 04:08:33;;;;;;;10.72;4.58;;;;;;;13.52;74.16;99793.90;1692187;82;21201;-76
2021/06/05 04:11:02;;;;;;;11.50;4.05;;;;;;;13.63;74.02;99793.33;1706562;84;21169;-70
2021/06/05 04:13:32;;;;;;;10.28;4.10;;;;;;;13.72;73.71;99791.09;1692986;82;21382;-77
2021/06/05 04:16:00;;;;;;;17.37;4.92;;;;;;;13.81;73.32;99792.14;1696697;84;21200;-75
2021/06/05 04:18:32;;;;;;;14.85;4.50;;;;;;;13.89;73.27;99786.06;1694512;82;21204;-75
2021/06/05 04:21:01;;;;;;;13.72;4.70;;;;;;;13.99;72.82;99783.81;1693121;84;21654;-75
2021/06/05 04:23:29;;;;;;;;;;;;;;;14.08;72.62;99786.27;1695353;82;21493;-70
2021/06/05 04:25:57;;;;;;;16.90;4.58;;;;;;;14.17;72.56;99788.68;1684403;85;20182;-75
2021/06/05 04:28:26;;;;;;;11.57;4.00;;;;;;;14.26;72.18;99787.55;1684689;82;21195;-69
2021/06/05 04:30:54;;;;;;;9.50;4.20;;;;;;;14.31;72.16;99787.00;1697777;82;21427;-74
2021/06/05 04:33:24;;;;;;;12.88;4.42;;;;;;;14.37;71.86;99788.59;1708313;83;21671;-69
2021/06/05 04:35:53;;;;;;;13.68;5.12;;;;;;;14.43;71.64;99791.60;1685765;82;21166;-77
2021/06/05 04:38:21;;;;;;;15.25;5.70;;;;;;;14.52;71.42;99791.25;1684594;82;21163;-69
2021/06/05 04:40:49;;;;;;;12.65;4.08;;;;;;;14.59;71.10;99784.89;1671710;83;21143;-76
2021/06/05 04:43:18;;;;;;;14.43;3.85;;;;;;;14.75;70.69;99794.42;1696332;83;21164;-76
2021/06/05 04:45:47;;;;;;;11.18;4.47;;;;;;;14.75;70.69;99794.42;1701281;82;21199;-71
2021/06/05 04:48:16;;;;;;;;;;;;;;;14.83;70.88;99800.67;1700424;83;21178;-76
2021/06/05 04:50:44;;;;;;;16.23;4.30;;;;;;;14.90;70.36;99801.20;1712807;82;20184;-70
2021/06/05 04:53:12;;;;;;;12.78;4.50;;;;;;;14.93;70.29;99798.67;1689069;83;21167;-75
2021/06/05 04:55:40;;;;;;;15.23;4.50;;;;;;;14.95;70.07;99786.80;1707362;82;21711;-75
2021/06/05 04:58:07;;;;;;;11.53;4.47;;;;;;;14.99;70.21;99788.43;1718955;83;21199;-69
2021/06/05 05:00:39;;;;;;;14.23;4.60;;;;;;;15.02;70.15;99789.23;1716975;82;21320;-69
2021/06/05 05:03:09;;;;;;;13.03;4.50;;;;;;;15.06;70.22;99788.91;1692819;83;21167;-69
2021/06/05 05:05:37;;;;;;;11.85;4.35;;;;;;;15.08;70.11;99792.20;1697958;82;21614;-76
2021/06/05 05:08:06;;;;;;;9.95;3.75;;;;;;;15.14;69.99;99788.30;1701561;84;21173;-70
2021/06/05 05:10:38;;;;;;;9.83;4.35;;;;;;;15.19;69.79;99784.11;1677532;84;21189;-75
2021/06/05 05:13:06;;;;;;;11.33;4.30;;;;;;;15.24;69.32;99784.06;1694680;82;21260;-69
2021/06/05 05:15:34;;;;;;;12.58;4.25;;;;;;;15.29;69.34;99785.39;1692721;83;21616;-78
2021/06/05 05:18:01;;;;;;;11.30;4.27;;;;;;;15.33;69.47;99779.55;1684715;82;21132;-76
2021/06/05 05:20:36;;;;;;;12.20;4.78;;;;;;;15.42;69.04;99777.82;1683426;82;21156;-69
2021/06/05 05:23:06;;;;;;;8.95;4.37;;;;;;;15.47;68.60;99779.18;1696228;82;21210;-76
2021/06/05 05:25:35;;;;;;;11.03;4.40;;;;;;;15.52;68.38;99780.50;1684728;82;21679;-69
2021/06/05 05:28:03;;;;;;;12.43;4.25;;;;;;;15.53;68.21;99775.81;1688033;82;21151;-69
2021/06/05 05:30:53;;;;;;;14.75;4.35;;;;;;;15.54;68.38;99772.75;1693331;84;21210;-70
2021/06/05 05:33:22;;;;;;;19.30;5.67;;;;;;;15.58;68.64;99771.06;1736824;80;21135;-77
2021/06/05 05:35:51;;;;;;;10.18;6.35;;;;;;;15.65;68.55;99775.67;1704355;83;21151;-75
2021/06/05 05:38:21;;;;;;;17.98;4.40;;;;;;;15.70;68.27;99776.99;1728866;81;21261;-76
2021/06/05 05:40:48;;;;;;;14.43;5.15;;;;;;;15.77;67.64;99771.11;1712033;82;21187;-69
2021/06/05 05:43:16;;;;;;;10.35;5.00;;;;;;;15.79;67.75;99768.87;1721081;81;21134;-77
2021/06/05 05:45:44;;;;;;;11.53;4.60;;;;;;;15.83;67.76;99770.77;1732071;82;21164;-69
2021/06/05 05:48:13;;;;;;;15.63;4.55;;;;;;;15.85;68.12;99765.77;1725609;81;21152;-75
2021/06/05 05:50:42;;;;;;;12.75;4.62;;;;;;;15.87;67.90;99759.39;1725277;82;21624;-70
2021/06/05 05:53:10;;;;;;;14.47;4.80;;;;;;;15.92;67.86;99760.43;1785851;79;21116;-69
2021/06/05 05:55:38;;;;;;;10.40;3.58;;;;;;;16.00;67.89;99760.61;1814418;79;21124;-70
2021/06/05 05:58:11;;;;;;;11.08;4.35;;;;;;;16.11;67.00;99762.13;1802351;79;21574;-77
2021/06/05 06:00:40;;;;;;;13.55;4.00;;;;;;;16.21;66.16;99759.78;1777838;79;21176;-76
2021/06/05 06:03:10;;;;;;;10.18;3.20;;;;;;;16.29;65.15;99760.50;1781219;80;21143;-77
2021/06/05 06:05:39;;;;;;;13.75;3.98;;;;;;;16.32;64.95;99754.35;1761430;79;21811;-70
2021/06/05 06:08:08;;;;;;;14.28;3.25;;;;;;;16.37;65.29;99759.80;1761235;80;21081;-71
2021/06/05 06:10:37;;;;;;;16.20;3.72;;;;;;;16.40;64.30;99756.45;1778207;79;21618;-78
2021/06/05 06:13:05;;;;;;;10.70;3.45;;;;;;;16.39;64.27;99751.48;1765578;81;21136;-76
2021/06/05 06:15:36;;;;;;;9.73;3.80;;;;;;;16.38;63.97;99753.17;1773388;79;21333;-79
2021/06/05 06:18:06;;;;;;;13.03;5.17;;;;;;;16.37;64.21;99751.52;1782928;80;21144;-78
2021/06/05 06:20:42;;;;;;;9.53;3.60;;;;;;;16.37;64.42;99751.52;1792074;79;21293;-77
2021/06/05 06:23:15;;;;;;;11.45;2.85;;;;;;;16.37;64.38;99748.76;1787803;79;21257;-75
2021/06/05 06:25:44;;;;;;;12.70;3.52;;;;;;;16.37;64.29;99754.28;1787740;79;21150;-75
2021/06/05 06:28:13;;;;;;;11.53;3.50;;;;;;;16.36;64.47;99745.20;1774923;80;21136;-78
2021/06/05 06:30:43;;;;;;;13.48;3.50;;;;;;;16.37;63.91;99741.85;1763167;79;21176;-69
2021/06/05 06:33:11;;;;;;;9.63;3.40;;;;;;;16.37;63.42;99742.67;1732036;80;21136;-75
2021/06/05 06:35:39;;;;;;;17.05;3.65;;;;;;;16.37;63.39;99747.38;1786617;79;21187;-70
2021/06/05 06:38:11;;;;;;;15.10;3.30;;;;;;;16.35;63.63;99742.72;1765876;80;21253;-76
2021/06/05 06:40:39;;;;;;;9.85;3.17;;;;;;;16.35;64.02;99738.58;1707106;82;21728;-76
2021/06/05 06:43:10;;;;;;;12.95;3.52;;;;;;;16.36;62.73;99742.98;1706408;81;21768;-76
2021/06/05 06:45:39;;;;;;;13.88;3.15;;;;;;;16.35;63.00;99741.34;1689478;82;21152;-70
2021/06/05 06:48:09;;;;;;;11.18;3.17;;;;;;;16.38;63.55;99743.50;1720148;81;21639;-69
2021/06/05 06:50:38;;;;;;;13.68;3.20;;;;;;;16.42;62.73;99740.39;1720389;82;21175;-70
2021/06/05 06:53:05;;;;;;;6.67;2.90;;;;;;;16.44;62.88;99744.50;1724220;81;21160;-72
2021/06/05 06:55:33;;;;;;;12.53;3.02;;;;;;;16.45;61.54;99743.94;1705865;84;21203;-70
2021/06/05 06:58:01;;;;;;;12.65;3.52;;;;;;;16.43;61.87;99748.95;1724144;81;21283;-71
2021/06/05 07:00:34;;;;;;;9.65;3.45;;;;;;;16.41;62.04;99743.74;1767989;80;21280;-77
2021/06/05 07:03:02;;;;;;;12.73;3.10;;;;;;;16.43;61.88;99750.34;1779169;79;21572;-68
2021/06/05 07:05:30;;;;;;;13.78;3.52;;;;;;;16.42;61.66;99743.98;1751247;82;21186;-68
2021/06/05 07:08:21;;;;;;;12.75;3.35;;;;;;;16.41;61.69;99747.89;1775467;79;21344;-79
2021/06/05 07:10:53;;;;;;;13.48;3.50;;;;;;;16.38;62.20;99746.27;1756999;81;21163;-76
2021/06/05 07:13:21;;;;;;;13.55;3.35;;;;;;;16.40;62.54;99739.88;1779063;79;21177;-67
2021/06/05 07:15:51;;;;;;;12.68;3.33;;;;;;;16.46;62.27;99744.22;1773151;80;21156;-67
2021/06/05 07:18:20;;;;;;;12.45;3.65;;;;;;;16.50;62.46;99743.31;1779072;79;21665;-76
2021/06/05 07:20:51;;;;;;;10.10;3.47;;;;;;;16.55;62.80;99742.44;1734694;82;21114;-67
2021/06/05 07:23:21;;;;;;;9.38;3.20;;;;;;;16.57;61.55;99742.95;1698690;81;21271;-68
2021/06/05 07:25:50;;;;;;;13.43;3.33;;;;;;;16.58;62.29;99741.84;1716271;82;21164;-68
2021/06/05 07:28:34;;;;;;;10.05;3.10;;;;;;;16.61;61.98;99743.19;1733707;81;21156;-78
2021/06/05 07:31:04;;;;;;;10.93;3.00;;;;;;;16.64;61.33;99739.83;1705803;82;21290;-75
2021/06/05 07:33:32;;;;;;;16.32;3.92;;;;;;;16.67;60.90;99737.85;1715153;82;21148;-76
2021/06/05 07:35:59;;;;;;;9.95;3.17;;;;;;;16.69;61.24;99744.72;1764362;81;21295;-69
2021/06/05 07:38:29;;;;;;;10.63;3.30;;;;;;;16.66;60.99;99739.78;1765973;81;21159;-69
2021/06/05 07:40:57;;;;;;;10.08;3.00;;;;;;;16.65;61.16;99733.98;1739744;81;21393;-69
2021/06/05 07:43:28;;;;;;;12.37;3.22;;;;;;;16.65;61.06;99735.92;1727916;82;21249;-70
2021/06/05 07:45:57;;;;;;;9.45;2.75;;;;;;;16.59;59.48;99732.45;1717444;82;21447;-70
2021/06/05 07:48:26;;;;;;;;;;;;;;;16.57;60.42;99730.52;1772242;80;21162;-76
2021/06/05 07:50:54;;;;;;;;;;;;;;;16.60;60.27;99731.86;1784331;79;20190;-70
2021/06/05 07:53:21;;;;;;;16.10;3.58;;;;;;;16.61;60.38;99728.81;1762053;80;20226;-76
2021/06/05 07:55:49;;;;;;;19.15;3.62;;;;;;;16.64;60.56;99725.45;1798419;79;21624;-68
2021/06/05 07:58:17;;;;;;;17.50;4.55;;;;;;;16.72;61.26;99719.22;1811209;79;21178;-76
2021/06/05 08:00:45;;;;;;;15.83;3.42;;;;;;;16.82;60.84;99727.92;1785607;79;22116;-78
2021/06/05 08:11:07;;;;;;;17.05;3.20;;;;;;;16.99;60.43;99719.32;1824707;77;22179;-74
2021/06/05 08:13:35;;;;;;;10.40;3.47;;;;;;;16.93;60.99;99721.08;1758231;81;21223;-69
2021/06/05 08:16:05;;;;;;;8.30;2.98;;;;;;;16.94;60.98;99724.94;1740433;80;21417;-75
2021/06/05 08:18:34;;;;;;;12.37;3.20;;;;;;;16.95;60.61;99722.42;1710138;83;21148;-78
2021/06/05 08:21:07;;;;;;;13.83;3.12;;;;;;;16.93;60.32;99725.23;1731620;81;21646;-76
2021/06/05 08:23:35;;;;;;;9.60;3.20;;;;;;;16.90;60.47;99722.51;1753154;80;21511;-68
2021/06/05 08:26:03;;;;;;;9.80;3.10;;;;;;;16.85;60.48;99721.21;1754094;82;21152;-77
2021/06/05 08:28:31;;;;;;;13.43;3.47;;;;;;;16.76;59.60;99713.92;1733199;80;21164;-71
2021/06/05 08:31:02;;;;;;;14.25;2.85;;;;;;;16.66;59.63;99729.29;1709543;83;21160;-69
2021/06/05 08:33:31;;;;;;;8.43;2.70;;;;;;;16.61;60.08;99721.08;1746420;80;21141;-69
2021/06/05 08:35:58;;;;;;;9.05;3.02;;;;;;;16.57;60.54;99718.09;1758142;81;21153;-68
2021/06/05 08:38:28;;;;;;;14.53;3.55;;;;;;;16.56;60.41;99713.70;1727455;80;21140;-78
2021/06/05 08:41:19;;;;;;;10.95;3.27;;;;;;;16.57;61.04;99711.18;1725337;83;21525;-78
2021/06/05 08:44:10;;;;;;;12.28;3.42;;;;;;;16.63;60.87;99711.37;1739591;80;21140;-77
2021/06/05 08:46:45;;;;;;;10.28;3.20;;;;;;;16.57;60.58;99712.56;1722370;82;21179;-78
2021/06/05 08:49:21;;;;;;;11.53;3.27;;;;;;;16.53;60.72;99710.70;1739704;80;21238;-77
2021/06/05 08:52:05;;;;;;;11.33;3.52;;;;;;;16.51;61.21;99709.61;1740208;82;21158;-79
2021/06/05 08:54:43;;;;;;;15.32;3.75;;;;;;;16.53;61.78;99707.39;1743950;80;21191;-75
2021/06/05 08:57:41;;;;;;;8.93;3.45;;;;;;;16.60;62.19;99711.97;1689329;83;21595;-70
2021/06/05 09:00:26;;;;;;;9.40;3.45;;;;;;;16.66;61.41;99712.16;1725016;81;21206;-76
2021/06/05 09:03:01;;;;;;;10.28;3.58;;;;;;;16.70;61.53;99709.03;1757719;81;21116;-77
2021/06/05 09:05:32;;;;;;;12.98;4.25;;;;;;;16.70;60.25;99706.27;1753967;80;21129;-70
2021/06/05 09:08:00;;;;;;;11.48;3.75;;;;;;;16.69;61.07;99700.50;1717863;83;21280;-70
2021/06/05 09:10:30;;;;;;;8.70;3.52;;;;;;;16.76;61.32;99705.63;1700924;81;21159;-69
2021/06/05 09:12:58;;;;;;;9.70;3.25;;;;;;;16.82;61.00;99701.11;1684295;85;21173;-76
2021/06/05 09:15:31;;;;;;;9.68;3.45;;;;;;;16.86;60.97;99707.66;1706122;82;21153;-75
2021/06/05 09:18:01;;;;;;;18.12;3.77;;;;;;;16.87;60.56;99705.72;1743534;82;21184;-75
2021/06/05 09:20:43;;;;;;;11.25;3.30;;;;;;;16.85;61.12;99708.77;1703288;82;21298;-68
2021/06/05 09:23:27;;;;;;;15.13;3.47;;;;;;;16.85;60.89;99701.06;1696072;84;21603;-75
2021/06/05 09:25:56;;;;;;;13.93;3.42;;;;;;;16.83;60.33;99702.73;1701527;82;21742;-74
2021/06/05 09:28:31;;;;;;;11.05;3.25;;;;;;;16.77;60.31;99701.75;1685096;84;21603;-67
2021/06/05 09:31:24;;;;;;;10.75;3.62;;;;;;;16.69;60.21;99706.59;1698793;81;21170;-67
2021/06/05 09:33:52;;;;;;;11.00;3.10;;;;;;;16.58;60.30;99708.69;1707714;83;21623;-75
2021/06/05 09:36:33;;;;;;;12.20;3.62;;;;;;;16.48;60.44;99714.34;1659781;85;21188;-75
2021/06/05 09:39:10;;;;;;;8.43;3.10;;;;;;;16.41;61.07;99707.00;1667072;85;21162;-76
2021/06/05 09:41:44;;;;;;;11.53;3.52;;;;;;;16.39;61.43;99707.28;1675428;83;21569;-76
2021/06/05 09:44:23;;;;;;;13.65;3.30;;;;;;;16.38;61.45;99700.14;1713607;83;21173;-68
2021/06/05 09:47:09;;;;;;;11.43;3.37;;;;;;;16.39;61.62;99697.62;1709898;82;21156;-68
2021/06/05 09:49:45;;;;;;;9.30;3.65;;;;;;;16.40;61.60;99695.69;1705227;84;21192;-76
2021/06/05 09:52:21;;;;;;;9.63;3.62;;;;;;;16.39;61.75;99700.38;1698561;82;21197;-69
2021/06/05 09:54:48;;;;;;;8.48;3.02;;;;;;;16.38;61.90;99691.85;1691196;84;21254;-74
2021/06/05 09:57:33;;;;;;;15.13;3.62;;;;;;;16.38;62.02;99688.27;1703334;82;21268;-77
2021/06/05 10:00:26;;;;;;;11.57;3.45;;;;;;;16.39;61.87;99689.33;1703242;84;21678;-76
2021/06/05 10:03:22;;;;;;;11.83;3.60;;;;;;;16.42;61.16;99686.53;1705211;82;21149;-76
2021/06/05 10:05:50;;;;;;;10.72;3.50;;;;;;;16.44;61.80;99696.16;1705403;84;21189;-69
2021/06/05 10:08:33;;;;;;;13.95;3.83;;;;;;;16.47;61.29;99680.37;1709629;82;21161;-68
2021/06/05 10:11:25;;;;;;;16.10;3.30;;;;;;;16.50;61.29;99682.53;1706239;83;21616;-76
2021/06/05 10:14:07;;;;;;;12.15;3.45;;;;;;;16.52;62.04;99682.25;1702185;82;21145;-68
2021/06/05 10:16:38;;;;;;;12.03;3.15;;;;;;;16.56;61.52;99685.25;1712013;84;21181;-69
2021/06/05 10:19:16;;;;;;;11.03;3.20;;;;;;;16.60;61.90;99684.89;1707639;82;21172;-75
2021/06/05 10:21:47;;;;;;;8.33;3.10;;;;;;;16.61;61.03;99688.75;1681867;84;21149;-74
2021/06/05 10:24:38;;;;;;;9.68;3.15;;;;;;;16.61;61.55;99686.55;1729118;82;21148;-67
2021/06/05 10:27:12;;;;;;;11.40;3.50;;;;;;;16.63;61.96;99686.50;1753626;82;21184;-75
2021/06/05 10:30:02;;;;;;;8.50;3.05;;;;;;;16.64;62.25;99684.01;1729058;82;21581;-73
2021/06/05 10:32:39;;;;;;;7.12;3.27;;;;;;;16.64;62.57;99688.70;1684321;84;21288;-76
2021/06/05 10:35:16;;;;;;;9.58;3.40;;;;;;;16.59;63.03;99690.17;1708361;82;21168;-68
2021/06/05 10:37:44;;;;;;;8.93;3.35;;;;;;;16.56;63.61;99692.98;1706877;84;21152;-68
2021/06/05 10:40:21;;;;;;;11.43;3.45;;;;;;;16.53;63.65;99683.91;1702992;82;21149;-75
2021/06/05 10:42:52;;;;;;;7.72;3.17;;;;;;;16.49;63.85;99686.41;1709194;84;21730;-75
2021/06/05 10:45:32;;;;;;;8.70;3.25;;;;;;;16.50;64.02;99687.23;1695422;82;21270;-67
2021/06/05 10:48:31;;;;;;;10.38;3.50;;;;;;;16.51;64.34;99686.95;1674960;84;21623;-66
2021/06/05 10:51:08;;;;;;;19.40;3.70;;;;;;;16.52;64.15;99687.78;1690515;82;21199;-67
2021/06/05 10:53:40;;;;;;;10.70;3.40;;;;;;;16.53;64.50;99679.77;1690836;84;21164;-74
2021/06/05 10:56:14;;;;;;;12.58;3.30;;;;;;;16.61;63.99;99687.37;1697540;81;21305;-68
2021/06/05 10:58:50;;;;;;;11.12;3.50;;;;;;;16.65;63.23;99687.56;1688212;84;21148;-69
2021/06/05 11:01:45;;;;;;;8.83;3.00;;;;;;;16.63;63.81;99696.73;1695978;83;21138;-67
2021/06/05 11:04:39;;;;;;;14.38;3.70;;;;;;;16.56;64.50;99683.31;1709081;84;21201;-75
2021/06/05 11:07:15;;;;;;;15.53;3.42;;;;;;;16.43;65.39;99705.58;1690938;83;21668;-68
2021/06/05 11:09:49;;;;;;;18.27;3.40;;;;;;;16.30;65.96;99698.05;1692569;84;21789;-68
2021/06/05 11:12:24;;;;;;;14.00;3.50;;;;;;;16.19;66.51;99702.66;1697660;83;21118;-74
2021/06/05 11:14:55;;;;;;;22.02;3.52;;;;;;;16.06;67.19;99704.77;1684340;83;21129;-75
2021/06/05 11:17:35;;;;;;;9.73;2.92;;;;;;;15.97;67.97;99706.54;1681750;83;21200;-68
2021/06/05 11:20:10;;;;;;;9.90;3.60;;;;;;;15.81;68.46;99715.02;1682680;84;21216;-74
2021/06/05 11:22:59;;;;;;;14.53;4.28;;;;;;;15.74;69.36;99717.33;1693449;83;21601;-68
2021/06/05 11:25:36;;;;;;;12.60;3.60;;;;;;;15.69;70.00;99711.05;1711174;84;21256;-69
2021/06/05 11:28:25;;;;;;;;;;;;;;;15.63;70.67;99707.56;1697702;83;21547;-66
2021/06/05 11:30:55;;;;;;;15.80;4.58;;;;;;;15.52;71.64;99713.47;1668272;85;20225;-69
2021/06/05 11:33:44;;;;;;;12.30;4.35;;;;;;;15.45;73.16;99724.02;1679239;83;21605;-74
2021/06/05 11:36:39;;;;;;;8.05;3.83;;;;;;;15.38;74.26;99720.20;1682312;85;21218;-74
2021/06/05 11:39:25;;;;;;;9.83;3.22;;;;;;;15.28;75.96;99718.94;1672359;83;21203;-74
2021/06/05 11:41:56;;;;;;;9.83;3.60;;;;;;;15.09;76.89;99723.56;1669268;83;21145;-75
2021/06/05 11:44:41;;;;;;;9.15;4.20;;;;;;;14.93;77.42;99725.64;1706613;83;21122;-69
2021/06/05 11:47:21;;;;;;;10.13;4.30;;;;;;;14.84;78.55;99721.88;1683871;84;21311;-68
2021/06/05 11:50:13;;;;;;;12.15;4.15;;;;;;;14.78;79.16;99713.38;1683131;83;21221;-71
2021/06/05 11:53:03;;;;;;;13.22;4.60;;;;;;;14.76;79.43;99716.16;1682333;85;21208;-71
2021/06/05 11:55:48;;;;;;;13.98;4.22;;;;;;;14.75;79.09;99713.95;1710784;84;21173;-72
2021/06/05 11:58:25;;;;;;;13.28;4.92;;;;;;;14.79;78.87;99710.08;1710632;84;21197;-71
2021/06/05 12:01:16;;;;;;;18.87;9.80;;;;;;;14.86;78.55;99716.07;1682282;85;21882;-71
2021/06/05 12:04:06;;;;;;;10.38;4.20;;;;;;;14.91;77.70;99707.75;1681961;83;21714;-70
2021/06/05 12:06:39;;;;;;;12.18;4.33;;;;;;;14.90;77.73;99715.77;1680294;84;21137;-70
2021/06/05 12:09:23;;;;;;;16.30;4.30;;;;;;;14.95;77.27;99715.14;1696371;83;21165;-71
2021/06/05 12:12:00;;;;;;;9.43;4.62;;;;;;;15.02;76.74;99713.45;1710506;84;21177;-69
2021/06/05 12:14:46;;;;;;;11.30;4.47;;;;;;;15.05;76.68;99715.62;1680697;83;21755;-69
2021/06/05 12:17:31;;;;;;;11.83;4.47;;;;;;;15.08;76.81;99723.29;1681347;85;21161;-68
2021/06/05 12:20:21;;;;;;;12.55;4.20;;;;;;;15.10;76.51;99721.88;1674639;83;21572;-68
2021/06/05 12:22:56;;;;;;;7.55;4.17;;;;;;;15.09;76.59;99723.56;1670289;86;21170;-78
2021/06/05 12:25:36;;;;;;;10.30;4.40;;;;;;;15.07;76.61;99723.04;1679819;84;21168;-69
2021/06/05 12:28:15;;;;;;;14.03;3.90;;;;;;;15.10;77.48;99725.22;1684263;83;21668;-76
2021/06/05 12:30:47;;;;;;;6.62;3.70;;;;;;;15.13;76.95;99724.62;1686447;83;21177;-75